Terminal Aerodrome Forecast
Issued by NWS Duluth, MN

Home | Current Version | Previous Version | Text Only | Print | Product List | Glossary On
Versions: 1 2 3 4 5 6 7 8 9 10 11 12 13 14 15 16 17 18 19 20 21 22 23 24 25 26 27 28 29 30
354
FTUS43 KDLH 210541
TAFINL
TAF
KINL 210541Z 2106/2206 22004KT P6SM SKC
     FM210700 00000KT 1 1/2SM BR SCT020
     FM210800 00000KT 3/4SM BR BKN003
     FM210900 00000KT 1/2SM FG BKN003
     FM211300 00000KT 1 1/2SM BR OVC003
     FM211800 VRB03KT P6SM BKN010=

USA.gov is the U.S. government's official web portal to all federal, state and local government web resources and services.